createdAt,value
2019-05-07T00:00:19.258Z,72.87
2019-05-07T00:02:49.184Z,72.44
2019-05-07T00:05:19.125Z,73.01
2019-05-07T00:07:49.042Z,73.25
2019-05-07T00:10:18.987Z,72.47
2019-05-07T00:12:48.924Z,72.53
2019-05-07T00:15:19.888Z,72.81
2019-05-07T00:17:52.117Z,72.76
2019-05-07T00:20:23.132Z,72.67
2019-05-07T00:22:53.447Z,72.90
2019-05-07T00:25:23.507Z,73.38
2019-05-07T00:30:28.389Z,73.69
2019-05-07T00:32:59.857Z,73.81
2019-05-07T00:35:34.391Z,73.91
2019-05-07T00:38:09.645Z,73.86
2019-05-07T00:40:42.550Z,74.05
2019-05-07T00:43:17.196Z,73.30
2019-05-07T00:45:48.762Z,73.27
2019-05-07T00:48:18.668Z,72.85
2019-05-07T00:50:52.643Z,72.98
2019-05-07T00:53:23.713Z,74.08
2019-05-07T00:55:53.511Z,74.84
2019-05-07T00:58:26.662Z,74.97
2019-05-07T01:00:55.224Z,74.93
2019-05-07T01:03:25.253Z,75.57
2019-05-07T01:05:55.186Z,76.13
2019-05-07T01:08:25.223Z,75.90
2019-05-07T01:10:55.279Z,76.08
2019-05-07T01:13:25.187Z,75.91
2019-05-07T01:15:55.128Z,76.26
2019-05-07T01:18:24.967Z,76.26
2019-05-07T01:20:54.735Z,76.08
2019-05-07T01:23:24.734Z,76.27
2019-05-07T01:25:54.669Z,76.06
2019-05-07T01:28:24.698Z,76.53
2019-05-07T01:30:54.738Z,76.24
2019-05-07T01:33:26.252Z,76.84
2019-05-07T01:36:03.821Z,75.97
2019-05-07T01:38:34.838Z,76.19
2019-05-07T01:41:04.811Z,75.79
2019-05-07T01:43:36.253Z,75.79
2019-05-07T01:46:06.211Z,75.62
2019-05-07T01:48:36.247Z,75.67
2019-05-07T01:51:06.181Z,75.02
2019-05-07T01:53:36.131Z,74.01
2019-05-07T01:56:06.052Z,74.39
2019-05-07T01:58:36.090Z,73.90
2019-05-07T02:01:06.014Z,73.56
2019-05-07T02:03:43.837Z,72.43
2019-05-07T02:06:32.643Z,70.52
2019-05-07T02:09:22.459Z,70.35
2019-05-07T02:11:53.824Z,68.56
2019-05-07T02:14:23.762Z,68.97
2019-05-07T02:16:54.016Z,71.36
2019-05-07T02:19:23.943Z,71.83
2019-05-07T02:21:53.987Z,71.87
2019-05-07T02:24:23.817Z,72.79
2019-05-07T02:26:53.748Z,73.12
2019-05-07T02:29:23.781Z,73.42
2019-05-07T02:31:53.822Z,72.67
2019-05-07T02:34:23.755Z,73.12
2019-05-07T02:36:54.069Z,72.73
2019-05-07T02:39:25.669Z,71.36
2019-05-07T02:41:55.604Z,72.52
2019-05-07T02:44:25.552Z,71.41
2019-05-07T02:47:04.089Z,72.93
2019-05-07T02:49:38.496Z,71.75
2019-05-07T02:52:13.220Z,71.29
2019-05-07T02:54:59.549Z,71.57
2019-05-07T02:57:33.634Z,70.00
2019-05-07T03:00:04.449Z,71.18
2019-05-07T03:02:33.442Z,70.76
2019-05-07T03:05:05.342Z,68.93
2019-05-07T03:07:35.562Z,70.23
2019-05-07T03:10:06.621Z,70.19
2019-05-07T03:12:36.564Z,69.51
2019-05-07T03:15:06.913Z,68.90
2019-05-07T03:17:37.158Z,69.27
2019-05-07T03:20:08.972Z,70.51
2019-05-07T03:22:38.955Z,67.77
2019-05-07T03:25:14.637Z,66.27
2019-05-07T03:27:45.653Z,65.74
2019-05-07T03:30:25.562Z,68.58
2019-05-07T03:33:06.933Z,69.14
2019-05-07T03:35:37.757Z,69.32
2019-05-07T03:38:07.303Z,69.17
2019-05-07T03:40:38.260Z,70.31
2019-05-07T03:43:08.305Z,69.19
2019-05-07T03:45:43.425Z,68.83
2019-05-07T03:48:23.882Z,68.07
2019-05-07T03:50:53.325Z,67.50
2019-05-07T03:53:23.381Z,66.66
2019-05-07T03:55:54.136Z,66.47
2019-05-07T03:58:24.268Z,65.94
2019-05-07T04:00:54.192Z,64.51
2019-05-07T04:03:24.953Z,64.29
2019-05-07T04:05:55.195Z,63.93
2019-05-07T04:08:25.306Z,63.38
2019-05-07T04:10:55.273Z,61.66
2019-05-07T04:13:25.315Z,61.25
2019-05-07T04:15:55.240Z,62.21
2019-05-07T04:18:25.172Z,61.74
2019-05-07T04:20:55.106Z,61.11
2019-05-07T04:23:25.041Z,60.10
2019-05-07T04:25:56.936Z,59.66
2019-05-07T04:28:33.470Z,60.06
2019-05-07T04:31:03.565Z,60.33
2019-05-07T04:33:37.493Z,60.80
2019-05-07T04:36:09.984Z,60.31
2019-05-07T04:38:39.904Z,60.41
2019-05-07T04:41:09.887Z,59.00
2019-05-07T04:43:43.195Z,58.96
2019-05-07T04:46:14.328Z,59.18
2019-05-07T04:48:44.093Z,57.10
2019-05-07T04:51:15.804Z,55.64
2019-05-07T04:53:45.763Z,55.48
2019-05-07T04:56:15.669Z,56.38
2019-05-07T04:58:45.617Z,54.96
2019-05-07T05:01:17.185Z,54.46
2019-05-07T05:03:47.122Z,54.77
2019-05-07T05:06:17.049Z,55.36
2019-05-07T05:08:47.196Z,54.49
2019-05-07T05:11:19.681Z,54.25
2019-05-07T05:13:49.611Z,54.72
2019-05-07T05:16:23.741Z,55.25
2019-05-07T05:18:56.057Z,55.09
2019-05-07T05:21:42.737Z,54.66
2019-05-07T05:24:15.835Z,55.19
2019-05-07T05:26:45.878Z,54.34
2019-05-07T05:29:16.539Z,54.12
2019-05-07T05:31:46.561Z,53.72
2019-05-07T05:34:16.504Z,53.63
2019-05-07T05:36:46.364Z,54.32
2019-05-07T05:39:16.281Z,53.96
2019-05-07T05:41:47.846Z,54.92
2019-05-07T05:44:22.596Z,54.48
2019-05-07T05:46:52.576Z,53.72
2019-05-07T05:49:23.066Z,52.85
2019-05-07T05:51:54.048Z,52.17
2019-05-07T05:54:25.484Z,52.01
2019-05-07T05:57:13.432Z,51.13
2019-05-07T06:00:03.230Z,49.22
2019-05-07T06:02:37.632Z,48.62
2019-05-07T06:05:25.588Z,48.91
2019-05-07T06:07:57.247Z,49.57
2019-05-07T06:10:28.812Z,49.59
2019-05-07T06:13:01.828Z,50.36
2019-05-07T06:15:49.550Z,50.67
2019-05-07T06:18:37.581Z,50.34
2019-05-07T06:21:15.300Z,50.86
2019-05-07T06:23:46.871Z,52.69
2019-05-07T06:26:16.802Z,51.75
2019-05-07T06:28:46.734Z,51.67
2019-05-07T06:31:16.790Z,53.06
2019-05-07T06:33:46.716Z,52.03
2019-05-07T06:36:16.747Z,52.29
2019-05-07T06:39:04.408Z,50.92
2019-05-07T06:41:52.623Z,50.62
2019-05-07T06:44:23.468Z,50.06
2019-05-07T06:46:53.404Z,49.22
2019-05-07T06:49:23.748Z,50.14
2019-05-07T06:51:53.682Z,48.95
2019-05-07T06:54:23.589Z,47.47
2019-05-07T06:56:53.650Z,46.53
2019-05-07T06:59:25.238Z,43.58
2019-05-07T07:02:05.335Z,39.72
2019-05-07T07:04:36.244Z,35.52
2019-05-07T07:07:27.221Z,32.92
2019-05-07T07:09:53.294Z,30.36
2019-05-07T07:12:26.107Z,27.78
2019-05-07T07:14:58.075Z,27.78
2019-05-07T07:17:29.439Z,27.67
2019-05-07T07:19:59.377Z,31.52
2019-05-07T07:22:29.315Z,33.06
2019-05-07T07:24:59.247Z,32.41
2019-05-07T07:27:29.151Z,32.55
2019-05-07T07:30:17.144Z,31.82
2019-05-07T07:32:48.653Z,30.65
2019-05-07T07:35:18.927Z,34.41
2019-05-07T07:37:48.970Z,34.41
2019-05-07T07:40:33.117Z,35.41
2019-05-07T07:43:06.476Z,32.65
2019-05-07T07:45:34.719Z,31.70
2019-05-07T07:48:04.872Z,32.64
2019-05-07T07:50:34.115Z,34.48
2019-05-07T07:53:04.081Z,34.18
2019-05-07T07:55:38.551Z,32.99
2019-05-07T07:58:12.686Z,30.16
2019-05-07T08:00:59.283Z,30.16
2019-05-07T08:03:29.218Z,29.42
2019-05-07T08:05:58.449Z,29.65
2019-05-07T08:08:28.273Z,26.99
2019-05-07T08:10:58.202Z,25.91
2019-05-07T08:13:28.138Z,23.89
2019-05-07T08:15:58.182Z,22.25
2019-05-07T08:18:28.140Z,22.05
2019-05-07T08:20:59.494Z,21.33
2019-05-07T08:23:29.424Z,23.95
2019-05-07T08:25:59.354Z,24.47
2019-05-07T08:28:29.286Z,25.21
2019-05-07T08:31:03.515Z,25.66
2019-05-07T08:33:34.990Z,26.10
2019-05-07T08:36:09.211Z,26.90
2019-05-07T08:38:56.145Z,28.26
2019-05-07T08:41:27.881Z,29.04
2019-05-07T08:44:10.763Z,28.35
2019-05-07T08:46:38.743Z,30.65
2019-05-07T08:49:12.141Z,27.93
2019-05-07T08:51:42.652Z,26.50
2019-05-07T08:54:12.590Z,26.14
2019-05-07T08:56:42.661Z,26.36
2019-05-07T08:59:12.694Z,25.61
2019-05-07T09:01:43.469Z,25.34
2019-05-07T09:04:13.720Z,26.54
2019-05-07T09:06:43.814Z,23.00
2019-05-07T09:09:14.375Z,23.71
2019-05-07T09:11:44.405Z,23.53
2019-05-07T09:14:15.375Z,25.76
2019-05-07T09:16:45.303Z,28.43
2019-05-07T09:19:14.546Z,28.93
2019-05-07T09:21:44.348Z,27.05
2019-05-07T09:24:13.593Z,27.27
2019-05-07T09:27:02.783Z,24.69
2019-05-07T09:29:46.591Z,25.62
2019-05-07T09:32:24.475Z,27.75
2019-05-07T09:34:59.170Z,26.50
2019-05-07T09:37:33.156Z,24.60
2019-05-07T09:40:03.244Z,26.03
2019-05-07T09:42:33.580Z,24.26
2019-05-07T09:45:03.975Z,23.59
2019-05-07T09:47:34.029Z,22.23
2019-05-07T09:50:08.086Z,21.96
2019-05-07T09:52:37.359Z,24.14
2019-05-07T09:55:16.575Z,26.02
2019-05-07T09:57:42.236Z,24.02
2019-05-07T10:00:12.718Z,24.44
2019-05-07T10:02:42.692Z,20.54
2019-05-07T10:05:12.929Z,19.68
2019-05-07T10:07:42.898Z,22.13
2019-05-07T10:10:13.255Z,21.04
2019-05-07T10:12:56.788Z,21.78
2019-05-07T10:15:26.724Z,21.51
2019-05-07T10:17:57.506Z,22.41
2019-05-07T10:20:28.613Z,24.24
2019-05-07T10:22:59.921Z,24.49
2019-05-07T10:25:39.144Z,20.88
2019-05-07T10:28:09.488Z,19.63
2019-05-07T10:30:39.523Z,17.27
2019-05-07T10:33:09.553Z,16.61
2019-05-07T10:35:39.589Z,16.32
2019-05-07T10:38:09.734Z,18.48
2019-05-07T10:40:39.764Z,19.06
2019-05-07T10:43:09.815Z,19.13
2019-05-07T10:45:42.141Z,23.75
2019-05-07T10:48:33.425Z,22.44
2019-05-07T10:51:04.852Z,21.79
2019-05-07T10:53:35.031Z,19.96
2019-05-07T10:56:05.004Z,23.08
2019-05-07T10:58:34.991Z,23.48
2019-05-07T11:01:05.737Z,22.54
2019-05-07T11:03:35.615Z,28.73
2019-05-07T11:06:05.712Z,32.04
2019-05-07T11:08:35.063Z,32.75
2019-05-07T11:11:04.966Z,33.17
2019-05-07T11:13:34.909Z,33.17
2019-05-07T11:16:09.238Z,35.08
2019-05-07T11:18:42.611Z,36.57
2019-05-07T11:21:14.211Z,37.19
2019-05-07T11:23:44.372Z,36.50
2019-05-07T11:26:14.569Z,34.33
2019-05-07T11:28:43.743Z,31.70
2019-05-07T11:31:13.645Z,32.33
2019-05-07T11:33:43.611Z,34.42
2019-05-07T11:36:13.624Z,36.49
2019-05-07T11:38:44.653Z,36.94
2019-05-07T11:41:14.721Z,36.59
2019-05-07T11:43:49.149Z,35.90
2019-05-07T11:46:22.192Z,35.11
2019-05-07T11:48:57.514Z,35.28
2019-05-07T11:51:33.453Z,35.31
2019-05-07T11:54:08.242Z,35.96
2019-05-07T11:56:38.467Z,37.58
2019-05-07T11:59:07.918Z,39.51
2019-05-07T12:01:44.555Z,39.39
2019-05-07T12:04:12.536Z,40.86
2019-05-07T12:06:42.817Z,40.68
2019-05-07T12:09:12.899Z,41.32
2019-05-07T12:11:42.881Z,41.25
2019-05-07T12:14:12.922Z,41.31
2019-05-07T12:16:42.986Z,40.90
2019-05-07T12:19:16.318Z,40.88
2019-05-07T12:21:44.649Z,40.18
2019-05-07T12:24:16.352Z,39.70
2019-05-07T12:26:46.172Z,39.43
2019-05-07T12:29:16.109Z,40.23
2019-05-07T12:31:47.578Z,39.85
2019-05-07T12:34:22.879Z,39.24
2019-05-07T12:36:52.871Z,39.01
2019-05-07T12:39:22.769Z,40.07
2019-05-07T12:41:52.733Z,36.43
2019-05-07T12:44:22.671Z,37.25
2019-05-07T12:46:52.643Z,38.57
2019-05-07T12:49:22.554Z,39.70
2019-05-07T12:51:54.108Z,35.96
2019-05-07T12:54:25.680Z,29.13
2019-05-07T12:56:55.720Z,26.28
2019-05-07T12:59:25.658Z,29.23
2019-05-07T13:02:15.998Z,31.52
2019-05-07T13:04:36.273Z,27.32
2019-05-07T13:07:07.930Z,26.92
2019-05-07T13:09:37.870Z,26.87
2019-05-07T13:12:07.113Z,23.91
2019-05-07T13:14:37.024Z,23.40
2019-05-07T13:17:06.269Z,25.75
2019-05-07T13:19:39.018Z,26.76
2019-05-07T13:22:07.849Z,29.16
2019-05-07T13:24:37.098Z,28.94
2019-05-07T13:27:07.240Z,29.22
2019-05-07T13:29:37.143Z,28.98
2019-05-07T13:32:07.280Z,29.01
2019-05-07T13:34:36.564Z,28.87
2019-05-07T13:37:08.265Z,29.55
2019-05-07T13:39:43.037Z,31.64
2019-05-07T13:42:21.604Z,32.29
2019-05-07T13:44:53.625Z,34.47
2019-05-07T13:47:25.177Z,38.15
2019-05-07T13:49:56.162Z,40.37
2019-05-07T13:52:26.274Z,41.84
2019-05-07T13:54:56.328Z,41.87
2019-05-07T13:57:26.372Z,41.89
2019-05-07T13:59:56.506Z,42.18
2019-05-07T14:02:27.974Z,43.12
2019-05-07T14:04:58.102Z,42.34
2019-05-07T14:07:29.896Z,40.91
2019-05-07T14:10:02.167Z,40.64
2019-05-07T14:12:33.830Z,40.94
2019-05-07T14:15:04.157Z,38.74
2019-05-07T14:17:33.445Z,39.59
2019-05-07T14:20:04.928Z,40.33
2019-05-07T14:22:36.055Z,42.99
2019-05-07T14:25:07.412Z,43.26
2019-05-07T14:27:37.341Z,43.31
2019-05-07T14:30:09.069Z,43.81
2019-05-07T14:32:57.767Z,45.79
2019-05-07T14:35:38.358Z,47.24
2019-05-07T14:38:13.631Z,47.91
2019-05-07T14:40:42.704Z,49.11
2019-05-07T14:43:14.492Z,48.83
2019-05-07T14:45:44.519Z,49.43
2019-05-07T14:48:14.575Z,50.50
2019-05-07T14:50:44.982Z,51.65
2019-05-07T14:53:15.164Z,51.70
2019-05-07T14:55:45.161Z,51.56
2019-05-07T14:58:15.339Z,52.45
2019-05-07T15:00:45.468Z,52.71
2019-05-07T15:03:15.496Z,52.49
2019-05-07T15:05:45.451Z,53.13
2019-05-07T15:08:15.372Z,53.04
2019-05-07T15:10:45.412Z,52.65
2019-05-07T15:13:16.029Z,53.88
2019-05-07T15:15:45.996Z,53.80
2019-05-07T15:18:27.488Z,53.68
2019-05-07T15:20:57.528Z,53.30
2019-05-07T15:23:31.870Z,54.42
2019-05-07T15:26:04.717Z,54.84
2019-05-07T15:28:34.757Z,53.83
2019-05-07T15:31:09.522Z,54.73
2019-05-07T15:33:41.641Z,54.38
2019-05-07T15:36:12.003Z,53.83
2019-05-07T15:38:42.855Z,54.91
2019-05-07T15:41:13.090Z,54.99
2019-05-07T15:43:45.912Z,55.41
2019-05-07T15:46:14.980Z,55.64
2019-05-07T15:48:45.011Z,56.31
2019-05-07T15:51:16.910Z,57.10
2019-05-07T15:53:54.110Z,57.28
2019-05-07T15:56:24.122Z,57.68
2019-05-07T15:58:54.063Z,58.43
2019-05-07T16:01:24.100Z,58.48
2019-05-07T16:03:54.805Z,58.81
2019-05-07T16:06:25.305Z,59.42
2019-05-07T16:08:56.873Z,60.60
2019-05-07T16:11:27.015Z,61.07
2019-05-07T16:14:07.270Z,61.71
2019-05-07T16:16:38.845Z,62.30
2019-05-07T16:19:28.616Z,63.59
2019-05-07T16:22:03.617Z,64.16
2019-05-07T16:24:32.722Z,65.04
2019-05-07T16:27:05.245Z,65.50
2019-05-07T16:29:35.828Z,65.75
2019-05-07T16:32:06.008Z,66.35
2019-05-07T16:34:36.001Z,66.66
2019-05-07T16:37:07.596Z,66.93
2019-05-07T16:39:37.914Z,66.92
2019-05-07T16:42:07.979Z,67.28
2019-05-07T16:44:38.088Z,67.53
2019-05-07T16:47:08.030Z,68.16
2019-05-07T16:49:37.963Z,68.61
2019-05-07T16:52:07.976Z,69.17
2019-05-07T16:54:37.847Z,69.92
2019-05-07T16:57:18.299Z,70.47
2019-05-07T16:59:48.294Z,70.68
2019-05-07T17:02:19.867Z,71.04
2019-05-07T17:05:05.810Z,71.10
2019-05-07T17:07:37.396Z,71.69
2019-05-07T17:10:08.443Z,72.39
2019-05-07T17:12:41.741Z,71.87
2019-05-07T17:15:13.320Z,71.36
2019-05-07T17:17:45.000Z,71.09
2019-05-07T17:20:16.890Z,71.89
2019-05-07T17:22:48.529Z,72.63
2019-05-07T17:25:36.513Z,72.43
2019-05-07T17:28:08.713Z,72.78
2019-05-07T17:30:42.091Z,72.86
2019-05-07T17:33:14.054Z,73.66
2019-05-07T17:35:46.406Z,74.11
2019-05-07T17:38:17.188Z,73.79
2019-05-07T17:40:48.893Z,73.76
2019-05-07T17:43:19.007Z,73.51
2019-05-07T17:45:52.074Z,73.25
2019-05-07T17:48:23.243Z,72.52
2019-05-07T17:51:08.694Z,71.91
2019-05-07T17:53:39.096Z,71.43
2019-05-07T17:56:12.661Z,69.95
2019-05-07T17:58:42.739Z,69.97
2019-05-07T18:01:14.837Z,70.01
2019-05-07T18:03:44.531Z,69.93
2019-05-07T18:06:14.447Z,69.85
2019-05-07T18:08:44.907Z,69.27
2019-05-07T18:11:20.973Z,69.70
2019-05-07T18:13:51.845Z,70.09
2019-05-07T18:16:39.596Z,69.80
2019-05-07T18:19:12.646Z,69.58
2019-05-07T18:21:43.470Z,70.29
2019-05-07T18:24:16.847Z,69.83
2019-05-07T18:26:47.232Z,70.05
2019-05-07T18:29:17.121Z,71.36
2019-05-07T18:32:01.946Z,70.65
2019-05-07T18:34:32.525Z,70.80
2019-05-07T18:37:02.522Z,71.38
2019-05-07T18:39:32.815Z,72.06
2019-05-07T18:42:03.593Z,71.99
2019-05-07T18:44:33.626Z,72.39
2019-05-07T18:47:03.573Z,73.03
2019-05-07T18:49:33.907Z,73.51
2019-05-07T18:52:03.841Z,73.84
2019-05-07T18:54:35.507Z,73.90
2019-05-07T18:57:06.673Z,73.74
2019-05-07T18:59:38.339Z,74.13
2019-05-07T19:02:10.437Z,75.07
2019-05-07T19:04:42.125Z,76.06
2019-05-07T19:07:14.026Z,76.42
2019-05-07T19:09:44.496Z,77.32
2019-05-07T19:12:16.819Z,77.81
2019-05-07T19:14:47.789Z,78.24
2019-05-07T19:17:18.727Z,78.70
2019-05-07T19:19:48.671Z,78.49
2019-05-07T19:22:18.908Z,78.28
2019-05-07T19:24:48.361Z,77.72
2019-05-07T19:27:21.915Z,77.73
2019-05-07T19:29:52.500Z,77.50
2019-05-07T19:32:22.951Z,78.43
2019-05-07T19:34:53.716Z,78.94
2019-05-07T19:37:22.741Z,79.08
2019-05-07T19:39:54.080Z,79.48
2019-05-07T19:42:24.016Z,80.44
2019-05-07T19:44:54.255Z,81.27
2019-05-07T19:47:25.544Z,81.79
2019-05-07T19:49:55.961Z,82.40
2019-05-07T19:52:26.932Z,83.07
2019-05-07T19:55:04.174Z,83.47
2019-05-07T19:57:33.369Z,83.95
2019-05-07T20:00:05.728Z,83.26
2019-05-07T20:02:44.838Z,82.92
2019-05-07T20:05:14.727Z,83.86
2019-05-07T20:07:46.889Z,84.38
2019-05-07T20:10:18.657Z,84.74
2019-05-07T20:12:49.419Z,85.21
2019-05-07T20:15:22.373Z,85.67
2019-05-07T20:17:53.385Z,85.89
2019-05-07T20:20:24.639Z,86.16
2019-05-07T20:22:55.387Z,86.49
2019-05-07T20:25:25.323Z,86.36
2019-05-07T20:27:57.004Z,86.75
2019-05-07T20:30:26.249Z,87.12
2019-05-07T20:32:57.247Z,87.01
2019-05-07T20:35:28.543Z,86.93
2019-05-07T20:38:02.754Z,86.70
2019-05-07T20:40:34.446Z,86.39
2019-05-07T20:43:04.380Z,86.25
2019-05-07T20:45:35.365Z,85.84
2019-05-07T20:48:06.191Z,86.07
2019-05-07T20:50:36.246Z,86.37
2019-05-07T20:53:06.374Z,86.58
2019-05-07T20:55:47.032Z,86.98
2019-05-07T20:58:17.109Z,87.26
2019-05-07T21:00:47.056Z,87.32
2019-05-07T21:03:24.081Z,87.32
2019-05-07T21:05:54.249Z,87.29
2019-05-07T21:08:24.212Z,87.62
2019-05-07T21:10:54.233Z,88.08
2019-05-07T21:13:30.905Z,88.59
2019-05-07T21:15:56.850Z,88.91
2019-05-07T21:18:26.700Z,89.07
2019-05-07T21:20:56.633Z,89.19
2019-05-07T21:23:26.567Z,89.32
2019-05-07T21:25:56.480Z,89.55
2019-05-07T21:28:26.425Z,89.81
2019-05-07T21:30:56.349Z,89.72
2019-05-07T21:33:26.402Z,89.66
2019-05-07T21:35:56.226Z,89.56
2019-05-07T21:38:26.061Z,90.11
2019-05-07T21:40:55.885Z,90.32
2019-05-07T21:43:25.933Z,90.36
2019-05-07T21:45:56.272Z,90.29
2019-05-07T21:48:26.322Z,89.48
2019-05-07T21:50:57.264Z,88.65
2019-05-07T21:53:28.834Z,87.83
2019-05-07T21:56:03.035Z,87.25
2019-05-07T21:58:36.377Z,87.17
2019-05-07T22:01:07.953Z,87.13
2019-05-07T22:03:40.238Z,87.05
2019-05-07T22:06:12.675Z,86.95
2019-05-07T22:08:43.068Z,86.83
2019-05-07T22:11:13.207Z,86.33
2019-05-07T22:13:43.668Z,86.26
2019-05-07T22:16:13.206Z,86.42
2019-05-07T22:18:43.323Z,86.27
2019-05-07T22:21:13.254Z,86.25
2019-05-07T22:23:43.303Z,86.22
2019-05-07T22:26:22.689Z,86.15
2019-05-07T22:28:44.826Z,86.24
2019-05-07T22:31:18.870Z,86.47
2019-05-07T22:34:06.963Z,86.47
2019-05-07T22:36:36.879Z,86.53
2019-05-07T22:39:14.443Z,86.93
2019-05-07T22:41:45.974Z,87.01
2019-05-07T22:44:16.206Z,87.17
2019-05-07T22:46:46.045Z,87.34
2019-05-07T22:49:16.083Z,87.67
2019-05-07T22:51:46.019Z,87.52
2019-05-07T22:54:16.161Z,87.49
2019-05-07T22:56:59.482Z,87.49
2019-05-07T22:59:29.527Z,87.50
2019-05-07T23:01:59.457Z,87.21
2019-05-07T23:04:29.397Z,86.68
2019-05-07T23:06:59.337Z,86.37
2019-05-07T23:09:29.367Z,86.25
2019-05-07T23:11:59.195Z,85.54
2019-05-07T23:14:29.099Z,85.01
2019-05-07T23:16:59.073Z,85.44
2019-05-07T23:19:29.113Z,85.09
2019-05-07T23:21:59.040Z,84.80
2019-05-07T23:24:29.075Z,84.97
2019-05-07T23:26:59.112Z,85.17
2019-05-07T23:29:29.059Z,84.79
2019-05-07T23:31:58.933Z,84.25
2019-05-07T23:34:28.871Z,84.54
2019-05-07T23:36:58.835Z,84.73
2019-05-07T23:39:30.428Z,84.52
2019-05-07T23:42:02.308Z,84.19
2019-05-07T23:44:32.758Z,83.13
2019-05-07T23:47:02.889Z,82.97
2019-05-07T23:49:32.874Z,83.46
2019-05-07T23:52:02.921Z,83.32
2019-05-07T23:54:32.895Z,83.10
2019-05-07T23:57:09.263Z,82.91
2019-05-07T23:59:34.501Z,83.18
